Terminal Aerodrome Forecast
Issued by NWS Sterling, VA

Home | Current Version | Previous Version | Text Only | Print | Product List | Glossary On
Versions: 1 2 3 4 5 6 7 8 9 10 11 12 13 14 15 16 17 18 19 20 21 22 23 24 25
325
FTUS41 KLWX 231131
TAFIAD
TAF
KIAD 231131Z 2312/2418 33006KT P6SM SCT080 BKN130
     FM231600 35007KT P6SM BKN050
     FM240000 35004KT P6SM SCT250=

USA.gov is the U.S. government's official web portal to all federal, state and local government web resources and services.